sensor_id;sensor_type;location;lat;lon;timestamp;temperature;humidity
45311;SHT31;68264;51.540;5.854;2023-06-10T00:12:14;20.7;63.3
45311;SHT31;68264;51.540;5.854;2023-06-10T00:26:43;20.1;64.1
45311;SHT31;68264;51.540;5.854;2023-06-10T00:41:02;19.6;66.0
45311;SHT31;68264;51.540;5.854;2023-06-10T00:55:01;19.3;66.8
45311;SHT31;68264;51.540;5.854;2023-06-10T01:09:00;18.9;67.6
45311;SHT31;68264;51.540;5.854;2023-06-10T01:22:59;18.5;68.7
45311;SHT31;68264;51.540;5.854;2023-06-10T01:37:59;18.1;70.4
45311;SHT31;68264;51.540;5.854;2023-06-10T01:52:59;17.8;71.8
45311;SHT31;68264;51.540;5.854;2023-06-10T02:07:27;17.4;73.5
45311;SHT31;68264;51.540;5.854;2023-06-10T02:22:47;17.2;74.1
45311;SHT31;68264;51.540;5.854;2023-06-10T02:37:47;16.9;75.6
45311;SHT31;68264;51.540;5.854;2023-06-10T02:51:46;16.7;75.6
45311;SHT31;68264;51.540;5.854;2023-06-10T03:05:45;16.5;77.3
45311;SHT31;68264;51.540;5.854;2023-06-10T03:20:13;16.2;77.7
45311;SHT31;68264;51.540;5.854;2023-06-10T03:35:01;16.0;78.7
45311;SHT31;68264;51.540;5.854;2023-06-10T03:49:21;15.9;79.1
45311;SHT31;68264;51.540;5.854;2023-06-10T04:04:53;16.0;79.7
45311;SHT31;68264;51.540;5.854;2023-06-10T04:20:52;16.2;79.9
45311;SHT31;68264;51.540;5.854;2023-06-10T04:35:11;16.7;79.4
45311;SHT31;68264;51.540;5.854;2023-06-10T04:50:11;17.3;78.0
45311;SHT31;68264;51.540;5.854;2023-06-10T05:05:11;17.9;75.7
45311;SHT31;68264;51.540;5.854;2023-06-10T05:19:39;18.6;73.3
45311;SHT31;68264;51.540;5.854;2023-06-10T05:33:58;19.2;70.7
45311;SHT31;68264;51.540;5.854;2023-06-10T05:48:59;19.8;68.6
45311;SHT31;68264;51.540;5.854;2023-06-10T06:04:27;20.4;66.2
45311;SHT31;68264;51.540;5.854;2023-06-10T06:18:47;21.0;65.2
45311;SHT31;68264;51.540;5.854;2023-06-10T06:32:46;22.0;62.8
45311;SHT31;68264;51.540;5.854;2023-06-10T06:47:14;22.9;59.4
45311;SHT31;68264;51.540;5.854;2023-06-10T07:01:33;24.2;55.5
45311;SHT31;68264;51.540;5.854;2023-06-10T07:15:32;25.7;50.8
45311;SHT31;68264;51.540;5.854;2023-06-10T07:43:30;28.1;44.2
45311;SHT31;68264;51.540;5.854;2023-06-10T07:57:29;29.4;41.4
45311;SHT31;68264;51.540;5.854;2023-06-10T08:11:28;30.2;39.3
45311;SHT31;68264;51.540;5.854;2023-06-10T08:25:56;30.8;38.2
45311;SHT31;68264;51.540;5.854;2023-06-10T08:40:16;32.1;38.2
45311;SHT31;68264;51.540;5.854;2023-06-10T08:54:15;32.3;37.2
45311;SHT31;68264;51.540;5.854;2023-06-10T09:09:15;31.9;38.5
45311;SHT31;68264;51.540;5.854;2023-06-10T09:24:14;31.6;37.7
45311;SHT31;68264;51.540;5.854;2023-06-10T09:39:15;31.9;37.2
45311;SHT31;68264;51.540;5.854;2023-06-10T09:54:14;32.3;37.9
45311;SHT31;68264;51.540;5.854;2023-06-10T10:08:13;32.4;38.2
45311;SHT31;68264;51.540;5.854;2023-06-10T10:22:12;32.6;35.9
45311;SHT31;68264;51.540;5.854;2023-06-10T10:36:40;32.8;36.9
45311;SHT31;68264;51.540;5.854;2023-06-10T10:51:00;33.2;33.6
45311;SHT31;68264;51.540;5.854;2023-06-10T11:04:59;33.2;34.6
45311;SHT31;68264;51.540;5.854;2023-06-10T11:18:58;33.2;35.6
45311;SHT31;68264;51.540;5.854;2023-06-10T11:32:57;33.4;35.6
45311;SHT31;68264;51.540;5.854;2023-06-10T11:46:56;34.1;34.1
45311;SHT31;68264;51.540;5.854;2023-06-10T12:00:55;32.9;34.8
45311;SHT31;68264;51.540;5.854;2023-06-10T12:14:54;34.3;32.6
45311;SHT31;68264;51.540;5.854;2023-06-10T12:28:53;34.9;30.9
45311;SHT31;68264;51.540;5.854;2023-06-10T12:43:21;34.9;29.5
45311;SHT31;68264;51.540;5.854;2023-06-10T12:57:40;34.6;29.5
45311;SHT31;68264;51.540;5.854;2023-06-10T13:11:39;34.5;29.3
45311;SHT31;68264;51.540;5.854;2023-06-10T13:25:38;34.6;30.6
45311;SHT31;68264;51.540;5.854;2023-06-10T13:39:37;34.1;30.3
45311;SHT31;68264;51.540;5.854;2023-06-10T13:55:10;33.9;28.4
45311;SHT31;68264;51.540;5.854;2023-06-10T14:10:40;33.9;29.9
45311;SHT31;68264;51.540;5.854;2023-06-10T14:24:39;34.3;29.7
45311;SHT31;68264;51.540;5.854;2023-06-10T14:40:43;34.4;28.8
45311;SHT31;68264;51.540;5.854;2023-06-10T14:56:43;35.0;28.2
45311;SHT31;68264;51.540;5.854;2023-06-10T15:10:42;35.0;28.1
45311;SHT31;68264;51.540;5.854;2023-06-10T15:25:10;35.1;27.8
45311;SHT31;68264;51.540;5.854;2023-06-10T15:39:59;34.2;29.8
45311;SHT31;68264;51.540;5.854;2023-06-10T15:54:18;34.4;29.6
45311;SHT31;68264;51.540;5.854;2023-06-10T16:23:05;34.4;29.9
45311;SHT31;68264;51.540;5.854;2023-06-10T16:38:05;33.8;31.3
45311;SHT31;68264;51.540;5.854;2023-06-10T16:53:05;32.5;33.1
45311;SHT31;68264;51.540;5.854;2023-06-10T17:07:04;32.5;33.6
45311;SHT31;68264;51.540;5.854;2023-06-10T17:21:03;33.3;33.4
45311;SHT31;68264;51.540;5.854;2023-06-10T17:35:02;33.2;33.3
45311;SHT31;68264;51.540;5.854;2023-06-10T17:49:01;32.8;33.5
45311;SHT31;68264;51.540;5.854;2023-06-10T18:04:02;32.3;35.1
45311;SHT31;68264;51.540;5.854;2023-06-10T18:20:02;31.5;36.3
45311;SHT31;68264;51.540;5.854;2023-06-10T18:35:31;30.9;36.4
45311;SHT31;68264;51.540;5.854;2023-06-10T18:50:19;30.2;38.5
45311;SHT31;68264;51.540;5.854;2023-06-10T19:04:39;29.3;40.6
45311;SHT31;68264;51.540;5.854;2023-06-10T19:18:38;28.5;42.2
45311;SHT31;68264;51.540;5.854;2023-06-10T19:32:37;27.7;44.4
45311;SHT31;68264;51.540;5.854;2023-06-10T19:46:36;26.8;46.6
45311;SHT31;68264;51.540;5.854;2023-06-10T20:02:40;26.1;48.8
45311;SHT31;68264;51.540;5.854;2023-06-10T20:18:40;25.4;49.9
45311;SHT31;68264;51.540;5.854;2023-06-10T20:33:08;25.0;51.3
45311;SHT31;68264;51.540;5.854;2023-06-10T20:47:27;24.4;52.8
45311;SHT31;68264;51.540;5.854;2023-06-10T21:02:28;23.8;55.2
45311;SHT31;68264;51.540;5.854;2023-06-10T21:18:28;23.1;58.1
45311;SHT31;68264;51.540;5.854;2023-06-10T21:33:28;22.5;60.1
45311;SHT31;68264;51.540;5.854;2023-06-10T21:47:27;22.0;61.7
45311;SHT31;68264;51.540;5.854;2023-06-10T22:01:26;21.6;63.1
45311;SHT31;68264;51.540;5.854;2023-06-10T22:15:25;21.2;63.4
45311;SHT31;68264;51.540;5.854;2023-06-10T22:44:24;20.7;66.0
45311;SHT31;68264;51.540;5.854;2023-06-10T23:00:57;20.5;66.6
45311;SHT31;68264;51.540;5.854;2023-06-10T23:16:27;20.1;68.0
45311;SHT31;68264;51.540;5.854;2023-06-10T23:30:55;19.8;69.4
45311;SHT31;68264;51.540;5.854;2023-06-10T23:45:15;19.4;70.5
45311;SHT31;68264;51.540;5.854;2023-06-10T23:59:14;19.3;70.9
